sensor_id;sensor_type;location;lat;lon;timestamp;P1;durP1;ratioP1;P2;durP2;ratioP2
41077;SDS011;26823;42.662;23.352;2023-11-19T00:01:07;2.97;;;2.47;;
41077;SDS011;26823;42.662;23.352;2023-11-19T00:03:35;2.90;;;2.55;;
41077;SDS011;26823;42.662;23.352;2023-11-19T00:06:01;3.15;;;2.85;;
41077;SDS011;26823;42.662;23.352;2023-11-19T00:08:26;4.10;;;3.00;;
41077;SDS011;26823;42.662;23.352;2023-11-19T00:10:52;3.90;;;3.00;;
41077;SDS011;26823;42.662;23.352;2023-11-19T00:13:17;3.60;;;2.80;;
41077;SDS011;26823;42.662;23.352;2023-11-19T00:15:43;3.25;;;2.85;;
41077;SDS011;26823;42.662;23.352;2023-11-19T00:18:08;3.40;;;2.50;;
41077;SDS011;26823;42.662;23.352;2023-11-19T00:20:33;3.22;;;2.60;;
41077;SDS011;26823;42.662;23.352;2023-11-19T00:22:59;3.10;;;2.40;;
41077;SDS011;26823;42.662;23.352;2023-11-19T00:25:26;5.03;;;2.60;;
41077;SDS011;26823;42.662;23.352;2023-11-19T00:27:51;5.47;;;3.85;;
41077;SDS011;26823;42.662;23.352;2023-11-19T00:30:18;2.85;;;2.60;;
41077;SDS011;26823;42.662;23.352;2023-11-19T00:32:44;6.18;;;2.83;;
41077;SDS011;26823;42.662;23.352;2023-11-19T00:35:10;3.85;;;2.78;;
41077;SDS011;26823;42.662;23.352;2023-11-19T00:37:35;3.15;;;2.85;;
41077;SDS011;26823;42.662;23.352;2023-11-19T00:40:01;4.03;;;2.63;;
41077;SDS011;26823;42.662;23.352;2023-11-19T00:42:30;3.22;;;2.92;;
41077;SDS011;26823;42.662;23.352;2023-11-19T00:44:55;3.47;;;2.60;;
41077;SDS011;26823;42.662;23.352;2023-11-19T00:47:21;2.72;;;2.53;;
41077;SDS011;26823;42.662;23.352;2023-11-19T00:49:46;2.65;;;2.45;;
41077;SDS011;26823;42.662;23.352;2023-11-19T00:52:15;7.53;;;2.42;;
41077;SDS011;26823;42.662;23.352;2023-11-19T00:54:41;2.75;;;2.47;;
41077;SDS011;26823;42.662;23.352;2023-11-19T00:57:07;3.55;;;2.42;;
41077;SDS011;26823;42.662;23.352;2023-11-19T00:59:32;2.58;;;2.38;;
41077;SDS011;26823;42.662;23.352;2023-11-19T01:01:58;2.78;;;2.58;;
41077;SDS011;26823;42.662;23.352;2023-11-19T01:04:27;3.00;;;2.58;;
41077;SDS011;26823;42.662;23.352;2023-11-19T01:07:01;2.90;;;2.70;;
41077;SDS011;26823;42.662;23.352;2023-11-19T01:09:28;2.72;;;2.53;;
41077;SDS011;26823;42.662;23.352;2023-11-19T01:11:54;2.78;;;2.53;;
41077;SDS011;26823;42.662;23.352;2023-11-19T01:14:19;2.92;;;2.72;;
41077;SDS011;26823;42.662;23.352;2023-11-19T01:16:45;3.05;;;2.72;;
41077;SDS011;26823;42.662;23.352;2023-11-19T01:19:11;3.20;;;2.63;;
41077;SDS011;26823;42.662;23.352;2023-11-19T01:21:36;3.20;;;2.88;;
41077;SDS011;26823;42.662;23.352;2023-11-19T01:24:02;3.28;;;2.97;;
41077;SDS011;26823;42.662;23.352;2023-11-19T01:26:29;3.00;;;2.80;;
41077;SDS011;26823;42.662;23.352;2023-11-19T01:28:54;3.00;;;2.80;;
41077;SDS011;26823;42.662;23.352;2023-11-19T01:31:20;2.60;;;2.40;;
41077;SDS011;26823;42.662;23.352;2023-11-19T01:33:45;3.05;;;2.78;;
41077;SDS011;26823;42.662;23.352;2023-11-19T01:36:14;3.35;;;2.95;;
41077;SDS011;26823;42.662;23.352;2023-11-19T01:38:39;3.42;;;2.90;;
41077;SDS011;26823;42.662;23.352;2023-11-19T01:41:05;2.80;;;2.60;;
41077;SDS011;26823;42.662;23.352;2023-11-19T01:43:30;3.10;;;2.70;;
41077;SDS011;26823;42.662;23.352;2023-11-19T01:45:59;2.95;;;2.30;;
41077;SDS011;26823;42.662;23.352;2023-11-19T01:48:26;3.60;;;2.50;;
41077;SDS011;26823;42.662;23.352;2023-11-19T01:50:52;2.53;;;2.30;;
41077;SDS011;26823;42.662;23.352;2023-11-19T01:53:24;2.72;;;2.30;;
41077;SDS011;26823;42.662;23.352;2023-11-19T01:55:50;2.60;;;2.40;;
41077;SDS011;26823;42.662;23.352;2023-11-19T01:58:17;2.88;;;2.50;;
41077;SDS011;26823;42.662;23.352;2023-11-19T02:00:44;2.63;;;2.10;;
41077;SDS011;26823;42.662;23.352;2023-11-19T02:03:10;4.25;;;2.20;;
41077;SDS011;26823;42.662;23.352;2023-11-19T02:05:36;2.75;;;2.50;;
41077;SDS011;26823;42.662;23.352;2023-11-19T02:08:03;2.40;;;2.20;;
41077;SDS011;26823;42.662;23.352;2023-11-19T02:10:29;2.28;;;2.08;;
41077;SDS011;26823;42.662;23.352;2023-11-19T02:12:54;2.78;;;2.58;;
41077;SDS011;26823;42.662;23.352;2023-11-19T02:15:20;2.78;;;2.55;;
41077;SDS011;26823;42.662;23.352;2023-11-19T02:17:49;2.60;;;2.40;;
41077;SDS011;26823;42.662;23.352;2023-11-19T02:20:15;2.50;;;2.30;;
41077;SDS011;26823;42.662;23.352;2023-11-19T02:22:41;2.47;;;2.25;;
41077;SDS011;26823;42.662;23.352;2023-11-19T02:25:17;2.30;;;2.10;;
41077;SDS011;26823;42.662;23.352;2023-11-19T02:27:51;2.20;;;2.00;;
41077;SDS011;26823;42.662;23.352;2023-11-19T02:30:20;2.10;;;1.90;;
41077;SDS011;26823;42.662;23.352;2023-11-19T02:32:46;2.78;;;2.45;;
41077;SDS011;26823;42.662;23.352;2023-11-19T02:35:13;2.40;;;2.20;;
41077;SDS011;26823;42.662;23.352;2023-11-19T02:37:38;2.50;;;2.30;;
41077;SDS011;26823;42.662;23.352;2023-11-19T02:40:04;2.13;;;1.92;;
41077;SDS011;26823;42.662;23.352;2023-11-19T02:42:30;3.08;;;2.50;;
41077;SDS011;26823;42.662;23.352;2023-11-19T02:44:56;2.40;;;2.20;;
41077;SDS011;26823;42.662;23.352;2023-11-19T02:47:21;3.13;;;2.80;;
41077;SDS011;26823;42.662;23.352;2023-11-19T02:49:49;2.95;;;2.58;;
41077;SDS011;26823;42.662;23.352;2023-11-19T02:52:14;2.80;;;2.20;;
41077;SDS011;26823;42.662;23.352;2023-11-19T02:54:40;3.38;;;2.50;;
41077;SDS011;26823;42.662;23.352;2023-11-19T02:57:06;4.30;;;2.20;;
41077;SDS011;26823;42.662;23.352;2023-11-19T02:59:35;2.95;;;2.75;;
41077;SDS011;26823;42.662;23.352;2023-11-19T03:04:36;2.38;;;2.17;;
41077;SDS011;26823;42.662;23.352;2023-11-19T03:07:05;3.35;;;2.58;;
41077;SDS011;26823;42.662;23.352;2023-11-19T03:09:32;2.90;;;2.47;;
41077;SDS011;26823;42.662;23.352;2023-11-19T03:11:59;2.85;;;2.22;;
41077;SDS011;26823;42.662;23.352;2023-11-19T03:14:24;2.67;;;2.45;;
41077;SDS011;26823;42.662;23.352;2023-11-19T03:16:49;2.58;;;2.20;;
41077;SDS011;26823;42.662;23.352;2023-11-19T03:19:15;2.45;;;2.25;;
41077;SDS011;26823;42.662;23.352;2023-11-19T03:21:41;2.78;;;2.58;;
41077;SDS011;26823;42.662;23.352;2023-11-19T03:24:06;2.60;;;2.40;;
41077;SDS011;26823;42.662;23.352;2023-11-19T03:26:33;2.65;;;2.45;;
41077;SDS011;26823;42.662;23.352;2023-11-19T03:28:59;2.70;;;2.50;;
41077;SDS011;26823;42.662;23.352;2023-11-19T03:31:24;2.47;;;2.25;;
41077;SDS011;26823;42.662;23.352;2023-11-19T03:33:50;2.33;;;2.13;;
41077;SDS011;26823;42.662;23.352;2023-11-19T03:36:16;2.88;;;2.58;;
41077;SDS011;26823;42.662;23.352;2023-11-19T03:38:42;3.38;;;2.40;;
41077;SDS011;26823;42.662;23.352;2023-11-19T03:41:11;2.80;;;2.60;;
41077;SDS011;26823;42.662;23.352;2023-11-19T03:43:40;3.72;;;3.13;;
41077;SDS011;26823;42.662;23.352;2023-11-19T03:49:01;3.45;;;2.58;;
41077;SDS011;26823;42.662;23.352;2023-11-19T03:51:27;2.42;;;2.22;;
41077;SDS011;26823;42.662;23.352;2023-11-19T03:53:52;2.65;;;2.42;;
41077;SDS011;26823;42.662;23.352;2023-11-19T03:56:18;2.72;;;2.47;;
41077;SDS011;26823;42.662;23.352;2023-11-19T03:58:43;7.00;;;2.63;;
41077;SDS011;26823;42.662;23.352;2023-11-19T04:01:12;2.55;;;2.35;;
41077;SDS011;26823;42.662;23.352;2023-11-19T04:03:40;2.65;;;2.42;;
41077;SDS011;26823;42.662;23.352;2023-11-19T04:06:05;3.28;;;2.97;;
41077;SDS011;26823;42.662;23.352;2023-11-19T04:08:31;3.88;;;2.90;;
41077;SDS011;26823;42.662;23.352;2023-11-19T04:10:56;2.50;;;2.20;;
41077;SDS011;26823;42.662;23.352;2023-11-19T04:13:22;3.10;;;2.45;;
41077;SDS011;26823;42.662;23.352;2023-11-19T04:15:49;2.42;;;2.22;;
41077;SDS011;26823;42.662;23.352;2023-11-19T04:18:15;4.28;;;2.65;;
41077;SDS011;26823;42.662;23.352;2023-11-19T04:20:41;2.65;;;2.20;;
41077;SDS011;26823;42.662;23.352;2023-11-19T04:23:08;3.42;;;2.90;;
41077;SDS011;26823;42.662;23.352;2023-11-19T04:25:34;2.63;;;2.42;;
41077;SDS011;26823;42.662;23.352;2023-11-19T04:28:00;3.13;;;2.55;;
41077;SDS011;26823;42.662;23.352;2023-11-19T04:30:25;5.50;;;2.63;;
41077;SDS011;26823;42.662;23.352;2023-11-19T04:32:51;4.35;;;2.55;;
41077;SDS011;26823;42.662;23.352;2023-11-19T04:35:16;3.25;;;2.60;;
41077;SDS011;26823;42.662;23.352;2023-11-19T04:37:42;3.45;;;2.75;;
41077;SDS011;26823;42.662;23.352;2023-11-19T04:40:07;3.08;;;2.70;;
41077;SDS011;26823;42.662;23.352;2023-11-19T04:42:33;3.63;;;2.45;;
41077;SDS011;26823;42.662;23.352;2023-11-19T04:44:58;3.72;;;2.40;;
41077;SDS011;26823;42.662;23.352;2023-11-19T04:47:23;2.85;;;2.60;;
41077;SDS011;26823;42.662;23.352;2023-11-19T04:49:49;2.55;;;2.33;;
41077;SDS011;26823;42.662;23.352;2023-11-19T04:52:14;2.90;;;2.60;;
41077;SDS011;26823;42.662;23.352;2023-11-19T04:54:43;2.50;;;2.30;;
41077;SDS011;26823;42.662;23.352;2023-11-19T04:57:08;3.13;;;2.80;;
41077;SDS011;26823;42.662;23.352;2023-11-19T04:59:37;4.40;;;2.80;;
41077;SDS011;26823;42.662;23.352;2023-11-19T05:02:03;4.18;;;2.67;;
41077;SDS011;26823;42.662;23.352;2023-11-19T05:04:29;3.00;;;2.70;;
41077;SDS011;26823;42.662;23.352;2023-11-19T05:06:55;5.53;;;2.47;;
41077;SDS011;26823;42.662;23.352;2023-11-19T05:09:20;5.63;;;2.83;;
41077;SDS011;26823;42.662;23.352;2023-11-19T05:11:46;3.42;;;2.67;;
41077;SDS011;26823;42.662;23.352;2023-11-19T05:14:11;2.88;;;2.65;;
41077;SDS011;26823;42.662;23.352;2023-11-19T05:16:39;3.30;;;2.70;;
41077;SDS011;26823;42.662;23.352;2023-11-19T05:19:05;2.53;;;2.33;;
41077;SDS011;26823;42.662;23.352;2023-11-19T05:21:30;2.78;;;2.45;;
41077;SDS011;26823;42.662;23.352;2023-11-19T05:23:55;3.20;;;2.67;;
41077;SDS011;26823;42.662;23.352;2023-11-19T05:26:22;2.50;;;2.30;;
41077;SDS011;26823;42.662;23.352;2023-11-19T05:28:49;2.75;;;2.55;;
41077;SDS011;26823;42.662;23.352;2023-11-19T05:31:15;3.13;;;2.38;;
41077;SDS011;26823;42.662;23.352;2023-11-19T05:33:41;4.03;;;2.83;;
41077;SDS011;26823;42.662;23.352;2023-11-19T05:36:06;3.15;;;2.78;;
41077;SDS011;26823;42.662;23.352;2023-11-19T05:38:33;2.25;;;2.05;;
41077;SDS011;26823;42.662;23.352;2023-11-19T05:41:01;2.63;;;2.05;;
41077;SDS011;26823;42.662;23.352;2023-11-19T05:43:27;4.40;;;2.38;;
41077;SDS011;26823;42.662;23.352;2023-11-19T05:45:52;2.75;;;2.08;;
41077;SDS011;26823;42.662;23.352;2023-11-19T05:48:18;3.55;;;2.42;;
41077;SDS011;26823;42.662;23.352;2023-11-19T05:50:43;3.97;;;2.38;;
41077;SDS011;26823;42.662;23.352;2023-11-19T05:53:09;2.95;;;2.22;;
41077;SDS011;26823;42.662;23.352;2023-11-19T05:55:38;2.55;;;2.35;;
41077;SDS011;26823;42.662;23.352;2023-11-19T05:58:11;3.65;;;2.55;;
41077;SDS011;26823;42.662;23.352;2023-11-19T06:00:40;3.78;;;2.55;;
41077;SDS011;26823;42.662;23.352;2023-11-19T06:03:06;3.25;;;2.60;;
41077;SDS011;26823;42.662;23.352;2023-11-19T06:05:32;3.53;;;2.60;;
41077;SDS011;26823;42.662;23.352;2023-11-19T06:07:57;3.92;;;2.80;;
41077;SDS011;26823;42.662;23.352;2023-11-19T06:10:23;3.38;;;2.75;;
41077;SDS011;26823;42.662;23.352;2023-11-19T06:12:54;3.42;;;2.60;;
41077;SDS011;26823;42.662;23.352;2023-11-19T06:15:22;3.70;;;2.70;;
41077;SDS011;26823;42.662;23.352;2023-11-19T06:17:47;3.53;;;2.90;;
41077;SDS011;26823;42.662;23.352;2023-11-19T06:20:13;3.42;;;2.95;;
41077;SDS011;26823;42.662;23.352;2023-11-19T06:22:39;3.05;;;2.65;;
41077;SDS011;26823;42.662;23.352;2023-11-19T06:25:07;2.65;;;2.40;;
41077;SDS011;26823;42.662;23.352;2023-11-19T06:27:32;3.03;;;2.53;;
41077;SDS011;26823;42.662;23.352;2023-11-19T06:29:58;4.20;;;2.80;;
41077;SDS011;26823;42.662;23.352;2023-11-19T06:32:24;3.10;;;2.70;;
41077;SDS011;26823;42.662;23.352;2023-11-19T06:34:49;3.53;;;3.22;;
41077;SDS011;26823;42.662;23.352;2023-11-19T06:37:14;5.15;;;2.58;;
41077;SDS011;26823;42.662;23.352;2023-11-19T06:39:40;4.53;;;3.00;;
41077;SDS011;26823;42.662;23.352;2023-11-19T06:42:05;3.63;;;2.85;;
41077;SDS011;26823;42.662;23.352;2023-11-19T06:44:31;3.33;;;3.03;;
41077;SDS011;26823;42.662;23.352;2023-11-19T06:46:56;3.15;;;2.85;;
41077;SDS011;26823;42.662;23.352;2023-11-19T06:49:22;3.63;;;2.60;;
41077;SDS011;26823;42.662;23.352;2023-11-19T06:51:48;3.72;;;3.05;;
41077;SDS011;26823;42.662;23.352;2023-11-19T06:54:13;4.03;;;2.80;;
41077;SDS011;26823;42.662;23.352;2023-11-19T06:56:38;3.90;;;2.75;;
41077;SDS011;26823;42.662;23.352;2023-11-19T06:59:04;3.22;;;2.83;;
41077;SDS011;26823;42.662;23.352;2023-11-19T07:01:33;4.13;;;3.20;;
41077;SDS011;26823;42.662;23.352;2023-11-19T07:04:00;3.20;;;2.90;;
41077;SDS011;26823;42.662;23.352;2023-11-19T07:06:27;3.65;;;2.75;;
41077;SDS011;26823;42.662;23.352;2023-11-19T07:08:52;3.88;;;2.53;;
41077;SDS011;26823;42.662;23.352;2023-11-19T07:11:18;5.38;;;3.30;;
41077;SDS011;26823;42.662;23.352;2023-11-19T07:13:43;3.28;;;2.90;;
41077;SDS011;26823;42.662;23.352;2023-11-19T07:16:10;4.32;;;3.10;;
41077;SDS011;26823;42.662;23.352;2023-11-19T07:18:36;3.95;;;3.22;;
41077;SDS011;26823;42.662;23.352;2023-11-19T07:21:02;5.85;;;2.80;;
41077;SDS011;26823;42.662;23.352;2023-11-19T07:23:29;4.88;;;2.72;;
41077;SDS011;26823;42.662;23.352;2023-11-19T07:25:54;4.80;;;3.38;;
41077;SDS011;26823;42.662;23.352;2023-11-19T07:28:19;4.13;;;3.25;;
41077;SDS011;26823;42.662;23.352;2023-11-19T07:30:45;3.20;;;2.90;;
41077;SDS011;26823;42.662;23.352;2023-11-19T07:33:17;5.13;;;3.63;;
41077;SDS011;26823;42.662;23.352;2023-11-19T07:35:43;4.05;;;3.47;;
41077;SDS011;26823;42.662;23.352;2023-11-19T07:38:08;5.05;;;3.60;;
41077;SDS011;26823;42.662;23.352;2023-11-19T07:40:34;4.10;;;3.03;;
41077;SDS011;26823;42.662;23.352;2023-11-19T07:43:00;4.10;;;2.63;;
41077;SDS011;26823;42.662;23.352;2023-11-19T07:45:25;3.63;;;2.90;;
41077;SDS011;26823;42.662;23.352;2023-11-19T07:47:52;5.85;;;3.55;;
41077;SDS011;26823;42.662;23.352;2023-11-19T07:50:17;3.05;;;2.70;;
41077;SDS011;26823;42.662;23.352;2023-11-19T07:52:45;3.08;;;2.78;;
41077;SDS011;26823;42.662;23.352;2023-11-19T07:55:10;4.78;;;3.00;;
41077;SDS011;26823;42.662;23.352;2023-11-19T07:57:36;3.50;;;3.15;;
41077;SDS011;26823;42.662;23.352;2023-11-19T08:00:02;3.85;;;3.15;;
41077;SDS011;26823;42.662;23.352;2023-11-19T08:02:28;3.60;;;3.17;;
41077;SDS011;26823;42.662;23.352;2023-11-19T08:04:53;5.00;;;3.38;;
41077;SDS011;26823;42.662;23.352;2023-11-19T08:07:20;5.53;;;3.42;;
41077;SDS011;26823;42.662;23.352;2023-11-19T08:09:46;5.60;;;3.67;;
41077;SDS011;26823;42.662;23.352;2023-11-19T08:12:12;4.05;;;3.30;;
41077;SDS011;26823;42.662;23.352;2023-11-19T08:14:39;3.65;;;2.47;;
41077;SDS011;26823;42.662;23.352;2023-11-19T08:17:05;4.07;;;2.65;;
41077;SDS011;26823;42.662;23.352;2023-11-19T08:19:37;4.38;;;3.15;;
41077;SDS011;26823;42.662;23.352;2023-11-19T08:22:02;3.33;;;2.83;;
41077;SDS011;26823;42.662;23.352;2023-11-19T08:24:28;5.28;;;3.70;;
41077;SDS011;26823;42.662;23.352;2023-11-19T08:26:53;3.90;;;3.33;;
41077;SDS011;26823;42.662;23.352;2023-11-19T08:29:19;5.15;;;3.78;;
41077;SDS011;26823;42.662;23.352;2023-11-19T08:31:44;4.15;;;3.30;;
41077;SDS011;26823;42.662;23.352;2023-11-19T08:34:11;4.18;;;3.47;;
41077;SDS011;26823;42.662;23.352;2023-11-19T08:36:36;4.13;;;3.65;;
41077;SDS011;26823;42.662;23.352;2023-11-19T08:39:02;3.78;;;3.30;;
41077;SDS011;26823;42.662;23.352;2023-11-19T08:41:28;5.82;;;4.30;;
41077;SDS011;26823;42.662;23.352;2023-11-19T08:43:53;5.97;;;3.30;;
41077;SDS011;26823;42.662;23.352;2023-11-19T08:46:18;5.85;;;2.90;;
41077;SDS011;26823;42.662;23.352;2023-11-19T08:48:44;4.10;;;3.00;;
41077;SDS011;26823;42.662;23.352;2023-11-19T08:51:11;3.40;;;3.10;;
41077;SDS011;26823;42.662;23.352;2023-11-19T08:53:37;3.60;;;3.30;;
41077;SDS011;26823;42.662;23.352;2023-11-19T08:56:02;4.53;;;3.63;;
41077;SDS011;26823;42.662;23.352;2023-11-19T08:58:28;4.55;;;3.15;;
41077;SDS011;26823;42.662;23.352;2023-11-19T09:00:54;3.90;;;3.25;;
41077;SDS011;26823;42.662;23.352;2023-11-19T09:03:19;3.67;;;3.30;;
41077;SDS011;26823;42.662;23.352;2023-11-19T09:05:45;3.47;;;2.88;;
41077;SDS011;26823;42.662;23.352;2023-11-19T09:08:11;4.28;;;3.35;;
41077;SDS011;26823;42.662;23.352;2023-11-19T09:10:37;4.05;;;3.10;;
41077;SDS011;26823;42.662;23.352;2023-11-19T09:13:02;6.15;;;3.17;;
41077;SDS011;26823;42.662;23.352;2023-11-19T09:15:28;3.55;;;3.22;;
41077;SDS011;26823;42.662;23.352;2023-11-19T09:17:54;5.53;;;3.50;;
41077;SDS011;26823;42.662;23.352;2023-11-19T09:20:20;3.80;;;3.15;;
41077;SDS011;26823;42.662;23.352;2023-11-19T09:22:47;3.83;;;3.10;;
41077;SDS011;26823;42.662;23.352;2023-11-19T09:25:13;3.90;;;3.47;;
41077;SDS011;26823;42.662;23.352;2023-11-19T09:27:42;2.70;;;2.47;;
41077;SDS011;26823;42.662;23.352;2023-11-19T09:30:11;4.53;;;3.17;;
41077;SDS011;26823;42.662;23.352;2023-11-19T09:32:37;3.65;;;3.20;;
41077;SDS011;26823;42.662;23.352;2023-11-19T09:35:03;5.60;;;3.20;;
41077;SDS011;26823;42.662;23.352;2023-11-19T09:37:29;3.22;;;2.92;;
41077;SDS011;26823;42.662;23.352;2023-11-19T09:39:57;3.33;;;2.80;;
41077;SDS011;26823;42.662;23.352;2023-11-19T09:42:25;4.53;;;3.53;;
41077;SDS011;26823;42.662;23.352;2023-11-19T09:44:52;3.35;;;2.85;;
41077;SDS011;26823;42.662;23.352;2023-11-19T09:47:20;3.38;;;3.05;;
41077;SDS011;26823;42.662;23.352;2023-11-19T09:49:46;4.47;;;2.65;;
41077;SDS011;26823;42.662;23.352;2023-11-19T09:52:12;3.58;;;3.05;;
41077;SDS011;26823;42.662;23.352;2023-11-19T09:54:38;2.95;;;2.60;;
41077;SDS011;26823;42.662;23.352;2023-11-19T09:57:04;3.55;;;2.92;;
41077;SDS011;26823;42.662;23.352;2023-11-19T09:59:32;3.80;;;3.40;;
41077;SDS011;26823;42.662;23.352;2023-11-19T10:01:58;3.75;;;2.88;;
41077;SDS011;26823;42.662;23.352;2023-11-19T10:04:24;4.72;;;2.97;;
41077;SDS011;26823;42.662;23.352;2023-11-19T10:06:54;3.58;;;2.88;;
41077;SDS011;26823;42.662;23.352;2023-11-19T10:09:19;3.30;;;3.00;;
41077;SDS011;26823;42.662;23.352;2023-11-19T10:11:45;4.38;;;3.17;;
41077;SDS011;26823;42.662;23.352;2023-11-19T10:14:10;4.32;;;2.90;;
41077;SDS011;26823;42.662;23.352;2023-11-19T10:16:36;3.20;;;2.80;;
41077;SDS011;26823;42.662;23.352;2023-11-19T10:19:03;4.35;;;2.80;;
41077;SDS011;26823;42.662;23.352;2023-11-19T10:21:28;3.97;;;3.00;;
41077;SDS011;26823;42.662;23.352;2023-11-19T10:23:57;3.38;;;3.00;;
41077;SDS011;26823;42.662;23.352;2023-11-19T10:26:24;3.55;;;2.80;;
41077;SDS011;26823;42.662;23.352;2023-11-19T10:28:51;3.67;;;2.97;;
41077;SDS011;26823;42.662;23.352;2023-11-19T10:31:18;4.50;;;3.20;;
41077;SDS011;26823;42.662;23.352;2023-11-19T10:33:45;3.25;;;2.72;;
41077;SDS011;26823;42.662;23.352;2023-11-19T10:36:11;3.38;;;2.97;;
41077;SDS011;26823;42.662;23.352;2023-11-19T10:38:38;3.08;;;2.60;;
41077;SDS011;26823;42.662;23.352;2023-11-19T10:41:05;3.97;;;2.50;;
41077;SDS011;26823;42.662;23.352;2023-11-19T10:43:31;3.53;;;2.72;;
41077;SDS011;26823;42.662;23.352;2023-11-19T10:46:11;3.78;;;2.40;;
41077;SDS011;26823;42.662;23.352;2023-11-19T10:48:38;3.20;;;2.63;;
41077;SDS011;26823;42.662;23.352;2023-11-19T10:51:05;3.35;;;2.75;;
41077;SDS011;26823;42.662;23.352;2023-11-19T10:53:35;3.22;;;2.63;;
41077;SDS011;26823;42.662;23.352;2023-11-19T10:56:02;2.70;;;2.40;;
41077;SDS011;26823;42.662;23.352;2023-11-19T10:58:32;2.95;;;2.65;;
41077;SDS011;26823;42.662;23.352;2023-11-19T11:01:01;6.00;;;2.40;;
41077;SDS011;26823;42.662;23.352;2023-11-19T11:03:31;2.78;;;2.50;;
41077;SDS011;26823;42.662;23.352;2023-11-19T11:06:11;3.60;;;2.90;;
41077;SDS011;26823;42.662;23.352;2023-11-19T11:08:38;7.90;;;2.67;;
41077;SDS011;26823;42.662;23.352;2023-11-19T11:11:05;3.53;;;3.05;;
41077;SDS011;26823;42.662;23.352;2023-11-19T11:13:33;3.03;;;2.45;;
41077;SDS011;26823;42.662;23.352;2023-11-19T11:16:01;2.63;;;2.42;;
41077;SDS011;26823;42.662;23.352;2023-11-19T11:18:31;2.70;;;2.50;;
41077;SDS011;26823;42.662;23.352;2023-11-19T11:21:00;3.53;;;2.28;;
41077;SDS011;26823;42.662;23.352;2023-11-19T11:23:47;5.25;;;2.58;;
41077;SDS011;26823;42.662;23.352;2023-11-19T11:26:29;2.83;;;2.53;;
41077;SDS011;26823;42.662;23.352;2023-11-19T11:29:01;2.83;;;2.63;;
41077;SDS011;26823;42.662;23.352;2023-11-19T11:38:04;3.47;;;2.58;;
41077;SDS011;26823;42.662;23.352;2023-11-19T11:40:32;3.13;;;2.17;;
41077;SDS011;26823;42.662;23.352;2023-11-19T11:42:57;2.65;;;2.30;;
41077;SDS011;26823;42.662;23.352;2023-11-19T11:45:36;3.20;;;2.40;;
41077;SDS011;26823;42.662;23.352;2023-11-19T11:50:46;2.45;;;2.25;;
41077;SDS011;26823;42.662;23.352;2023-11-19T11:53:13;2.47;;;2.28;;
41077;SDS011;26823;42.662;23.352;2023-11-19T11:58:13;3.00;;;2.58;;
41077;SDS011;26823;42.662;23.352;2023-11-19T12:00:42;4.00;;;2.70;;
41077;SDS011;26823;42.662;23.352;2023-11-19T12:03:08;2.83;;;2.58;;
41077;SDS011;26823;42.662;23.352;2023-11-19T12:05:43;2.95;;;2.38;;
41077;SDS011;26823;42.662;23.352;2023-11-19T12:08:10;2.45;;;2.05;;
41077;SDS011;26823;42.662;23.352;2023-11-19T12:10:37;2.17;;;1.98;;
41077;SDS011;26823;42.662;23.352;2023-11-19T12:13:09;2.05;;;1.85;;
41077;SDS011;26823;42.662;23.352;2023-11-19T12:18:22;2.63;;;2.20;;
41077;SDS011;26823;42.662;23.352;2023-11-19T12:20:48;3.45;;;2.88;;
41077;SDS011;26823;42.662;23.352;2023-11-19T12:23:14;2.85;;;2.28;;
41077;SDS011;26823;42.662;23.352;2023-11-19T12:25:39;2.60;;;2.33;;
41077;SDS011;26823;42.662;23.352;2023-11-19T12:28:05;2.50;;;2.30;;
41077;SDS011;26823;42.662;23.352;2023-11-19T12:30:36;4.25;;;2.70;;
41077;SDS011;26823;42.662;23.352;2023-11-19T12:33:07;2.72;;;2.33;;
41077;SDS011;26823;42.662;23.352;2023-11-19T12:35:33;3.90;;;2.50;;
41077;SDS011;26823;42.662;23.352;2023-11-19T12:38:22;2.60;;;2.40;;
41077;SDS011;26823;42.662;23.352;2023-11-19T12:41:04;2.47;;;2.28;;
41077;SDS011;26823;42.662;23.352;2023-11-19T12:43:30;4.18;;;2.50;;
41077;SDS011;26823;42.662;23.352;2023-11-19T12:45:56;3.88;;;2.63;;
41077;SDS011;26823;42.662;23.352;2023-11-19T12:48:21;2.63;;;2.42;;
41077;SDS011;26823;42.662;23.352;2023-11-19T12:50:53;3.25;;;2.75;;
41077;SDS011;26823;42.662;23.352;2023-11-19T12:53:24;2.70;;;2.50;;
41077;SDS011;26823;42.662;23.352;2023-11-19T12:55:52;3.65;;;2.67;;
41077;SDS011;26823;42.662;23.352;2023-11-19T13:00:59;3.47;;;2.83;;
41077;SDS011;26823;42.662;23.352;2023-11-19T13:03:37;3.28;;;2.95;;
41077;SDS011;26823;42.662;23.352;2023-11-19T13:06:10;3.88;;;3.17;;
41077;SDS011;26823;42.662;23.352;2023-11-19T13:11:33;3.55;;;3.15;;
41077;SDS011;26823;42.662;23.352;2023-11-19T13:16:29;3.70;;;3.10;;
41077;SDS011;26823;42.662;23.352;2023-11-19T13:18:55;3.03;;;2.58;;
41077;SDS011;26823;42.662;23.352;2023-11-19T13:21:20;3.42;;;2.90;;
41077;SDS011;26823;42.662;23.352;2023-11-19T13:23:45;5.20;;;2.85;;
41077;SDS011;26823;42.662;23.352;2023-11-19T13:26:11;3.97;;;3.50;;
41077;SDS011;26823;42.662;23.352;2023-11-19T13:28:37;3.22;;;2.75;;
41077;SDS011;26823;42.662;23.352;2023-11-19T13:31:03;3.78;;;3.20;;
41077;SDS011;26823;42.662;23.352;2023-11-19T13:33:29;3.42;;;3.10;;
41077;SDS011;26823;42.662;23.352;2023-11-19T13:35:57;3.90;;;2.78;;
41077;SDS011;26823;42.662;23.352;2023-11-19T13:38:22;6.78;;;3.10;;
41077;SDS011;26823;42.662;23.352;2023-11-19T13:40:49;5.05;;;3.30;;
41077;SDS011;26823;42.662;23.352;2023-11-19T13:43:14;4.15;;;3.15;;
41077;SDS011;26823;42.662;23.352;2023-11-19T13:45:40;3.90;;;2.95;;
41077;SDS011;26823;42.662;23.352;2023-11-19T13:48:05;5.47;;;3.00;;
41077;SDS011;26823;42.662;23.352;2023-11-19T13:50:31;3.40;;;2.90;;
41077;SDS011;26823;42.662;23.352;2023-11-19T13:52:57;4.53;;;2.70;;
41077;SDS011;26823;42.662;23.352;2023-11-19T13:55:22;4.82;;;2.95;;
41077;SDS011;26823;42.662;23.352;2023-11-19T13:57:48;4.63;;;2.85;;
41077;SDS011;26823;42.662;23.352;2023-11-19T14:00:13;5.43;;;2.72;;
41077;SDS011;26823;42.662;23.352;2023-11-19T14:02:47;5.38;;;3.17;;
41077;SDS011;26823;42.662;23.352;2023-11-19T14:05:12;3.65;;;2.72;;
41077;SDS011;26823;42.662;23.352;2023-11-19T14:07:46;3.90;;;2.97;;
41077;SDS011;26823;42.662;23.352;2023-11-19T14:10:15;3.22;;;2.80;;
41077;SDS011;26823;42.662;23.352;2023-11-19T14:12:41;10.35;;;2.97;;
41077;SDS011;26823;42.662;23.352;2023-11-19T14:15:07;4.60;;;2.97;;
41077;SDS011;26823;42.662;23.352;2023-11-19T14:17:40;4.63;;;2.50;;
41077;SDS011;26823;42.662;23.352;2023-11-19T14:20:06;4.65;;;3.28;;
41077;SDS011;26823;42.662;23.352;2023-11-19T14:22:40;4.07;;;3.13;;
41077;SDS011;26823;42.662;23.352;2023-11-19T14:25:06;3.97;;;2.88;;
41077;SDS011;26823;42.662;23.352;2023-11-19T14:27:35;4.00;;;2.95;;
41077;SDS011;26823;42.662;23.352;2023-11-19T14:30:03;5.35;;;2.70;;
41077;SDS011;26823;42.662;23.352;2023-11-19T14:32:30;5.78;;;3.10;;
41077;SDS011;26823;42.662;23.352;2023-11-19T14:34:56;3.15;;;2.85;;
41077;SDS011;26823;42.662;23.352;2023-11-19T14:37:21;4.00;;;3.60;;
41077;SDS011;26823;42.662;23.352;2023-11-19T14:39:46;4.75;;;3.17;;
41077;SDS011;26823;42.662;23.352;2023-11-19T14:42:12;5.05;;;3.75;;
41077;SDS011;26823;42.662;23.352;2023-11-19T14:44:38;5.22;;;3.50;;
41077;SDS011;26823;42.662;23.352;2023-11-19T14:47:04;4.63;;;3.67;;
41077;SDS011;26823;42.662;23.352;2023-11-19T14:49:36;5.25;;;3.10;;
41077;SDS011;26823;42.662;23.352;2023-11-19T14:52:04;5.47;;;3.95;;
41077;SDS011;26823;42.662;23.352;2023-11-19T14:54:30;5.93;;;4.20;;
41077;SDS011;26823;42.662;23.352;2023-11-19T14:56:56;4.25;;;3.65;;
41077;SDS011;26823;42.662;23.352;2023-11-19T14:59:21;6.53;;;4.03;;